createdAt,value
2022-09-02T00:01:28.602Z,0.90
2022-09-02T00:06:33.733Z,0.70
2022-09-02T00:11:37.275Z,0.65
2022-09-02T00:16:51.498Z,0.88
2022-09-02T00:21:54.815Z,0.70
2022-09-02T00:26:57.052Z,0.85
2022-09-02T00:32:01.488Z,0.80
2022-09-02T00:37:09.249Z,0.88
2022-09-02T00:42:11.498Z,0.90
2022-09-02T00:47:15.406Z,1.00
2022-09-02T00:52:26.311Z,0.95
2022-09-02T00:57:32.595Z,0.90
2022-09-02T01:02:34.698Z,0.80
2022-09-02T01:07:57.060Z,0.88
2022-09-02T01:13:10.951Z,1.02
2022-09-02T01:18:24.037Z,1.08
2022-09-02T01:23:34.670Z,0.95
2022-09-02T01:28:37.514Z,1.00
2022-09-02T01:33:39.318Z,1.13
2022-09-02T01:38:41.084Z,1.10
2022-09-02T01:43:45.770Z,1.20
2022-09-02T01:48:48.781Z,0.93
2022-09-02T01:53:50.887Z,1.10
2022-09-02T01:58:52.800Z,0.90
2022-09-02T02:03:55.132Z,1.08
2022-09-02T02:09:02.377Z,0.90
2022-09-02T02:14:08.010Z,1.20
2022-09-02T02:19:12.774Z,1.00
2022-09-02T02:24:15.122Z,0.90
2022-09-02T02:29:18.171Z,0.85
2022-09-02T02:34:22.333Z,1.15
2022-09-02T02:39:29.742Z,0.82
2022-09-02T02:44:35.420Z,0.80
2022-09-02T02:49:39.426Z,0.75
2022-09-02T02:54:46.083Z,0.98
2022-09-02T02:59:48.869Z,1.10
2022-09-02T03:04:52.437Z,1.30
2022-09-02T03:09:54.258Z,0.88
2022-09-02T03:14:56.074Z,1.13
2022-09-02T03:20:02.658Z,1.10
2022-09-02T03:25:10.301Z,1.15
2022-09-02T03:30:16.046Z,1.20
2022-09-02T03:35:23.646Z,1.15
2022-09-02T03:40:28.584Z,0.90
2022-09-02T03:45:32.950Z,1.10
2022-09-02T03:50:42.160Z,1.30
2022-09-02T03:55:52.361Z,1.00
2022-09-02T04:00:55.980Z,1.50
2022-09-02T04:05:59.707Z,1.20
2022-09-02T04:11:10.307Z,1.30
2022-09-02T04:16:18.195Z,1.30
2022-09-02T04:21:20.165Z,1.00
2022-09-02T04:26:23.091Z,1.13
2022-09-02T04:31:30.982Z,1.40
2022-09-02T04:36:34.833Z,1.40
2022-09-02T04:41:43.242Z,1.40
2022-09-02T04:46:51.062Z,1.67
2022-09-02T04:51:57.026Z,1.33
2022-09-02T04:57:00.474Z,1.27
2022-09-02T05:02:07.230Z,1.30
2022-09-02T05:07:11.967Z,1.40
2022-09-02T05:12:21.631Z,1.70
2022-09-02T05:17:31.896Z,1.50
2022-09-02T05:22:39.755Z,1.42
2022-09-02T05:27:43.100Z,1.13
2022-09-02T05:32:47.308Z,1.38
2022-09-02T05:37:50.409Z,1.35
2022-09-02T05:42:54.650Z,1.38
2022-09-02T05:47:56.472Z,1.83
2022-09-02T05:53:01.758Z,1.60
2022-09-02T05:58:10.352Z,1.50
2022-09-02T06:03:18.456Z,1.50
2022-09-02T06:08:20.514Z,1.50
2022-09-02T06:13:22.824Z,1.30
2022-09-02T06:18:28.949Z,1.60
2022-09-02T06:23:35.758Z,2.03
2022-09-02T06:28:42.585Z,1.63
2022-09-02T06:33:46.459Z,2.47
2022-09-02T06:38:52.889Z,1.80
2022-09-02T06:44:02.747Z,1.42
2022-09-02T06:49:08.383Z,1.70
2022-09-02T06:54:17.712Z,1.60
2022-09-02T06:59:24.193Z,1.80
2022-09-02T07:04:55.673Z,1.85
2022-09-02T07:10:04.997Z,1.60
2022-09-02T07:15:10.564Z,1.80
2022-09-02T07:20:17.957Z,1.42
2022-09-02T07:25:27.540Z,1.65
2022-09-02T07:30:32.120Z,1.40
2022-09-02T07:35:44.552Z,1.60
2022-09-02T07:40:50.850Z,1.55
2022-09-02T07:46:04.215Z,1.55
2022-09-02T07:51:09.564Z,1.73
2022-09-02T07:56:14.958Z,1.70
2022-09-02T08:01:23.643Z,1.38
2022-09-02T08:06:34.452Z,1.42
2022-09-02T08:11:40.379Z,1.50
2022-09-02T08:16:46.135Z,1.30
2022-09-02T08:21:51.058Z,1.70
2022-09-02T08:26:53.282Z,1.65
2022-09-02T08:31:55.293Z,1.45
2022-09-02T08:37:00.353Z,1.60
2022-09-02T08:42:15.619Z,1.60
2022-09-02T08:47:24.782Z,1.23
2022-09-02T08:52:36.607Z,1.35
2022-09-02T08:57:44.347Z,1.20
2022-09-02T09:03:15.261Z,1.20
2022-09-02T09:08:41.904Z,1.40
2022-09-02T09:14:02.919Z,1.23
2022-09-02T09:19:26.796Z,1.10
2022-09-02T09:24:32.104Z,1.27
2022-09-02T09:29:36.313Z,1.10
2022-09-02T09:34:54.112Z,1.10
2022-09-02T09:40:00.877Z,1.20
2022-09-02T09:45:38.530Z,0.88
2022-09-02T09:50:46.117Z,1.25
2022-09-02T09:56:22.605Z,1.10
2022-09-02T10:01:33.003Z,1.20
2022-09-02T10:06:43.585Z,1.00
2022-09-02T10:12:05.349Z,1.02
2022-09-02T10:17:16.509Z,1.35
2022-09-02T10:22:39.185Z,1.30
2022-09-02T10:28:09.664Z,1.35
2022-09-02T10:33:22.671Z,1.60
2022-09-02T10:38:34.289Z,1.15
2022-09-02T10:43:42.149Z,1.80
2022-09-02T10:49:07.327Z,1.23
2022-09-02T10:54:23.430Z,1.20
2022-09-02T10:59:40.289Z,1.30
2022-09-02T11:04:50.607Z,1.27
2022-09-02T11:10:11.113Z,0.90
2022-09-02T11:15:19.533Z,1.13
2022-09-02T11:20:45.877Z,0.90
2022-09-02T11:26:00.433Z,0.63
2022-09-02T11:31:28.205Z,0.80
2022-09-02T11:36:38.171Z,0.93
2022-09-02T11:42:05.126Z,0.90
2022-09-02T11:47:21.161Z,0.60
2022-09-02T11:52:27.335Z,0.90
2022-09-02T11:57:35.016Z,0.68
2022-09-02T12:02:45.682Z,0.75
2022-09-02T12:07:50.709Z,0.70
2022-09-02T12:13:00.421Z,0.80
2022-09-02T12:18:07.469Z,0.60
2022-09-02T12:23:11.373Z,0.70
2022-09-02T12:28:27.289Z,0.70
2022-09-02T12:33:36.446Z,0.70
2022-09-02T12:38:41.063Z,0.80
2022-09-02T12:44:05.520Z,0.68
2022-09-02T12:49:26.458Z,0.65
2022-09-02T12:54:38.747Z,0.90
2022-09-02T12:59:41.753Z,1.05
2022-09-02T13:05:17.947Z,0.60
2022-09-02T13:10:44.979Z,0.60
2022-09-02T13:16:05.575Z,0.82
2022-09-02T13:21:22.292Z,0.70
2022-09-02T13:26:50.214Z,0.68
2022-09-02T13:32:05.142Z,0.80
2022-09-02T13:37:32.380Z,0.63
2022-09-02T13:42:37.274Z,0.70
2022-09-02T13:47:48.429Z,0.70
2022-09-02T13:58:38.641Z,0.75
2022-09-02T14:03:44.965Z,0.73
2022-09-02T14:08:46.939Z,0.60
2022-09-02T14:13:50.045Z,0.60
2022-09-02T14:19:15.209Z,0.50
2022-09-02T14:24:26.330Z,0.60
2022-09-02T14:29:32.157Z,0.80
2022-09-02T14:34:37.220Z,0.60
2022-09-02T14:39:54.959Z,0.75
2022-09-02T14:44:59.431Z,0.50
2022-09-02T14:50:04.556Z,0.70
2022-09-02T14:55:08.801Z,0.75
2022-09-02T15:00:14.972Z,0.55
2022-09-02T15:05:19.540Z,0.80
2022-09-02T15:10:21.684Z,0.55
2022-09-02T15:15:24.654Z,0.80
2022-09-02T15:20:29.082Z,0.70
2022-09-02T15:25:34.204Z,0.75
2022-09-02T15:30:40.783Z,0.70
2022-09-02T15:35:47.399Z,0.90
2022-09-02T15:40:49.201Z,0.75
2022-09-02T15:45:53.814Z,0.50
2022-09-02T15:50:58.055Z,0.60
2022-09-02T15:56:04.547Z,0.80
2022-09-02T16:01:09.379Z,1.15
2022-09-02T16:06:13.303Z,0.65
2022-09-02T16:11:15.100Z,0.70
2022-09-02T16:16:20.302Z,0.70
2022-09-02T16:21:25.247Z,1.13
2022-09-02T16:26:34.060Z,0.70
2022-09-02T16:31:41.209Z,1.10
2022-09-02T16:36:48.155Z,0.80
2022-09-02T16:41:55.836Z,1.80
2022-09-02T16:46:57.657Z,1.10
2022-09-02T16:52:01.514Z,1.30
2022-09-02T16:57:04.685Z,1.60
2022-09-02T17:02:06.927Z,3.80
2022-09-02T17:07:09.566Z,1.60
2022-09-02T17:12:12.526Z,1.35
2022-09-02T17:17:17.283Z,1.30
2022-09-02T17:22:20.235Z,1.30
2022-09-02T17:27:21.961Z,0.95
2022-09-02T17:32:26.050Z,0.90
2022-09-02T17:37:30.988Z,1.20
2022-09-02T17:42:33.931Z,1.27
2022-09-02T17:47:40.338Z,1.20
2022-09-02T17:52:45.446Z,1.33
2022-09-02T17:57:51.088Z,1.35
2022-09-02T18:03:18.041Z,1.20
2022-09-02T18:09:02.271Z,1.23
2022-09-02T18:14:16.563Z,1.50
2022-09-02T18:19:27.588Z,1.00
2022-09-02T18:24:37.565Z,0.90
2022-09-02T18:29:56.500Z,0.80
2022-09-02T18:35:32.352Z,0.95
2022-09-02T18:40:54.568Z,0.80
2022-09-02T18:46:01.604Z,0.85
2022-09-02T18:51:24.441Z,0.88
2022-09-02T18:56:31.391Z,0.90
2022-09-02T19:01:42.559Z,1.10
2022-09-02T19:06:44.414Z,0.80
2022-09-02T19:11:51.838Z,1.00
2022-09-02T19:16:58.094Z,0.98
2022-09-02T19:22:04.912Z,1.00
2022-09-02T19:27:09.778Z,1.00
2022-09-02T19:32:15.227Z,1.00
2022-09-02T19:37:17.277Z,1.10
2022-09-02T19:42:24.201Z,0.80
2022-09-02T19:53:00.993Z,0.77
2022-09-02T19:58:05.242Z,0.98
2022-09-02T20:03:11.474Z,0.93
2022-09-02T20:08:16.914Z,0.98
2022-09-02T20:13:21.026Z,1.05
2022-09-02T20:18:28.520Z,1.08
2022-09-02T20:23:32.769Z,0.95
2022-09-02T20:28:45.014Z,0.93
2022-09-02T20:34:03.668Z,1.02
2022-09-02T20:39:14.637Z,0.90
2022-09-02T20:44:19.107Z,0.90
2022-09-02T20:49:55.539Z,1.05
2022-09-02T20:55:22.089Z,1.02
2022-09-02T21:00:30.903Z,1.05
2022-09-02T21:05:37.805Z,0.95
2022-09-02T21:10:45.838Z,0.90
2022-09-02T21:16:00.219Z,1.00
2022-09-02T21:21:31.769Z,0.80
2022-09-02T21:26:48.280Z,0.93
2022-09-02T21:32:01.564Z,1.20
2022-09-02T21:37:04.301Z,1.00
2022-09-02T21:42:19.575Z,0.90
2022-09-02T21:47:27.356Z,0.82
2022-09-02T21:52:49.612Z,0.95
2022-09-02T21:57:57.096Z,1.15
2022-09-02T22:03:19.961Z,1.02
2022-09-02T22:08:33.656Z,0.90
2022-09-02T22:13:41.926Z,0.75
2022-09-02T22:18:54.290Z,0.60
2022-09-02T22:23:56.284Z,0.98
2022-09-02T22:29:03.896Z,0.90
2022-09-02T22:34:09.301Z,1.20
2022-09-02T22:39:16.692Z,1.05
2022-09-02T22:45:01.156Z,1.00
2022-09-02T22:50:24.199Z,1.10
2022-09-02T22:55:33.515Z,0.85
2022-09-02T23:00:40.892Z,0.98
2022-09-02T23:06:08.025Z,0.80
2022-09-02T23:11:47.335Z,0.77
2022-09-02T23:17:05.514Z,1.15
2022-09-02T23:22:22.017Z,0.98
2022-09-02T23:27:53.239Z,1.40
2022-09-02T23:33:03.536Z,1.15
2022-09-02T23:38:28.497Z,0.82
2022-09-02T23:43:33.698Z,1.08
2022-09-02T23:48:52.125Z,1.00
2022-09-02T23:54:10.891Z,1.08
2022-09-02T23:59:34.532Z,1.08
